sensor_id;sensor_type;location;lat;lon;timestamp;pressure;altitude;pressure_sealevel;temperature;humidity
59417;BME280;45222;52.458;20.914;2023-02-13T00:03:41;102381.73;;;2.89;91.80
59417;BME280;45222;52.458;20.914;2023-02-13T00:07:26;102382.66;;;2.91;92.10
59417;BME280;45222;52.458;20.914;2023-02-13T00:11:12;102378.25;;;2.90;91.90
59417;BME280;45222;52.458;20.914;2023-02-13T00:14:58;102379.62;;;2.89;91.71
59417;BME280;45222;52.458;20.914;2023-02-13T00:18:43;102381.88;;;2.87;91.63
59417;BME280;45222;52.458;20.914;2023-02-13T00:22:29;102369.91;;;2.85;91.62
59417;BME280;45222;52.458;20.914;2023-02-13T00:26:15;102369.02;;;2.85;91.78
59417;BME280;45222;52.458;20.914;2023-02-13T00:30:02;102370.80;;;2.85;91.77
59417;BME280;45222;52.458;20.914;2023-02-13T00:33:48;102370.50;;;2.89;91.83
59417;BME280;45222;52.458;20.914;2023-02-13T00:37:34;102371.40;;;2.91;91.77
59417;BME280;45222;52.458;20.914;2023-02-13T00:41:19;102367.95;;;2.94;91.92
59417;BME280;45222;52.458;20.914;2023-02-13T00:45:06;102363.09;;;2.99;92.05
59417;BME280;45222;52.458;20.914;2023-02-13T00:48:51;102364.30;;;2.98;91.84
59417;BME280;45222;52.458;20.914;2023-02-13T00:52:37;102366.56;;;2.96;91.78
59417;BME280;45222;52.458;20.914;2023-02-13T00:56:22;102370.27;;;2.97;91.72
59417;BME280;45222;52.458;20.914;2023-02-13T01:00:11;102367.66;;;2.99;91.76
59417;BME280;45222;52.458;20.914;2023-02-13T01:03:57;102371.55;;;3.01;91.92
59417;BME280;45222;52.458;20.914;2023-02-13T01:07:42;102367.04;;;3.04;91.79
59417;BME280;45222;52.458;20.914;2023-02-13T01:11:28;102371.45;;;3.05;91.97
59417;BME280;45222;52.458;20.914;2023-02-13T01:15:13;102366.55;;;3.07;91.88
59417;BME280;45222;52.458;20.914;2023-02-13T01:18:58;102364.68;;;3.12;92.01
59417;BME280;45222;52.458;20.914;2023-02-13T01:22:44;102366.64;;;3.14;91.90
59417;BME280;45222;52.458;20.914;2023-02-13T01:26:29;102359.04;;;3.10;91.86
59417;BME280;45222;52.458;20.914;2023-02-13T01:30:16;102361.66;;;3.10;91.59
59417;BME280;45222;52.458;20.914;2023-02-13T01:34:02;102359.90;;;3.09;91.62
59417;BME280;45222;52.458;20.914;2023-02-13T01:37:47;102356.77;;;3.12;91.54
59417;BME280;45222;52.458;20.914;2023-02-13T01:41:33;102355.77;;;3.15;91.78
59417;BME280;45222;52.458;20.914;2023-02-13T01:45:25;102348.77;;;3.18;92.18
59417;BME280;45222;52.458;20.914;2023-02-13T01:49:14;102346.19;;;3.22;92.05
59417;BME280;45222;52.458;20.914;2023-02-13T01:53:06;102346.76;;;3.25;91.80
59417;BME280;45222;52.458;20.914;2023-02-13T01:56:55;102347.83;;;3.26;91.61
59417;BME280;45222;52.458;20.914;2023-02-13T02:00:42;102345.52;;;3.24;91.69
59417;BME280;45222;52.458;20.914;2023-02-13T02:04:34;102348.73;;;3.28;91.60
59417;BME280;45222;52.458;20.914;2023-02-13T02:08:23;102351.08;;;3.32;91.63
59417;BME280;45222;52.458;20.914;2023-02-13T02:12:11;102353.93;;;3.37;91.65
59417;BME280;45222;52.458;20.914;2023-02-13T02:15:58;102357.84;;;3.38;91.56
59417;BME280;45222;52.458;20.914;2023-02-13T02:19:52;102356.41;;;3.38;91.32
59417;BME280;45222;52.458;20.914;2023-02-13T02:23:58;102356.27;;;3.39;91.48
59417;BME280;45222;52.458;20.914;2023-02-13T02:28:12;102355.73;;;3.39;91.48
59417;BME280;45222;52.458;20.914;2023-02-13T02:36:26;102361.11;;;3.47;91.36
59417;BME280;45222;52.458;20.914;2023-02-13T02:40:23;102355.33;;;3.48;91.26
59417;BME280;45222;52.458;20.914;2023-02-13T02:44:19;102358.66;;;3.46;91.20
59417;BME280;45222;52.458;20.914;2023-02-13T02:48:10;102355.48;;;3.47;91.08
59417;BME280;45222;52.458;20.914;2023-02-13T02:52:20;102358.10;;;3.45;91.24
59417;BME280;45222;52.458;20.914;2023-02-13T02:56:14;102362.90;;;3.50;91.33
59417;BME280;45222;52.458;20.914;2023-02-13T03:00:02;102359.79;;;3.53;91.25
59417;BME280;45222;52.458;20.914;2023-02-13T03:04:03;102355.95;;;3.55;91.15
59417;BME280;45222;52.458;20.914;2023-02-13T03:08:07;102361.20;;;3.54;90.91
59417;BME280;45222;52.458;20.914;2023-02-13T03:11:54;102361.56;;;3.54;90.88
59417;BME280;45222;52.458;20.914;2023-02-13T03:15:59;102361.05;;;3.55;91.00
59417;BME280;45222;52.458;20.914;2023-02-13T03:20:17;102364.41;;;3.57;91.11
59417;BME280;45222;52.458;20.914;2023-02-13T03:24:44;102376.18;;;3.56;90.93
59417;BME280;45222;52.458;20.914;2023-02-13T03:28:35;102367.54;;;3.55;90.75
59417;BME280;45222;52.458;20.914;2023-02-13T03:32:46;102362.80;;;3.55;90.84
59417;BME280;45222;52.458;20.914;2023-02-13T03:36:45;102363.14;;;3.54;90.86
59417;BME280;45222;52.458;20.914;2023-02-13T03:40:53;102366.69;;;3.57;90.92
59417;BME280;45222;52.458;20.914;2023-02-13T03:49:39;102363.89;;;3.57;90.82
59417;BME280;45222;52.458;20.914;2023-02-13T03:53:46;102362.95;;;3.52;90.74
59417;BME280;45222;52.458;20.914;2023-02-13T03:57:36;102357.27;;;3.49;90.73
59417;BME280;45222;52.458;20.914;2023-02-13T04:01:46;102359.58;;;3.50;91.00
59417;BME280;45222;52.458;20.914;2023-02-13T04:05:38;102353.09;;;3.53;91.07
59417;BME280;45222;52.458;20.914;2023-02-13T04:09:25;102352.56;;;3.53;91.02
59417;BME280;45222;52.458;20.914;2023-02-13T04:13:16;102355.27;;;3.57;90.97
59417;BME280;45222;52.458;20.914;2023-02-13T04:17:05;102352.80;;;3.58;90.88
59417;BME280;45222;52.458;20.914;2023-02-13T04:20:51;102355.25;;;3.56;90.73
59417;BME280;45222;52.458;20.914;2023-02-13T04:24:36;102349.41;;;3.53;90.51
59417;BME280;45222;52.458;20.914;2023-02-13T04:28:22;102350.81;;;3.53;90.50
59417;BME280;45222;52.458;20.914;2023-02-13T04:32:09;102350.84;;;3.55;90.78
59417;BME280;45222;52.458;20.914;2023-02-13T04:35:54;102355.42;;;3.57;90.80
59417;BME280;45222;52.458;20.914;2023-02-13T04:39:40;102362.64;;;3.56;90.93
59417;BME280;45222;52.458;20.914;2023-02-13T04:43:26;102368.46;;;3.57;90.91
59417;BME280;45222;52.458;20.914;2023-02-13T04:47:11;102363.55;;;3.58;90.99
59417;BME280;45222;52.458;20.914;2023-02-13T04:50:57;102363.38;;;3.58;90.67
59417;BME280;45222;52.458;20.914;2023-02-13T04:54:42;102360.88;;;3.56;90.45
59417;BME280;45222;52.458;20.914;2023-02-13T04:58:28;102358.77;;;3.56;90.34
59417;BME280;45222;52.458;20.914;2023-02-13T05:02:13;102360.55;;;3.57;90.60
59417;BME280;45222;52.458;20.914;2023-02-13T05:05:59;102358.99;;;3.60;90.83
59417;BME280;45222;52.458;20.914;2023-02-13T05:09:44;102356.35;;;3.60;90.89
59417;BME280;45222;52.458;20.914;2023-02-13T05:13:30;102363.62;;;3.65;90.84
59417;BME280;45222;52.458;20.914;2023-02-13T05:17:15;102359.08;;;3.66;90.72
59417;BME280;45222;52.458;20.914;2023-02-13T05:21:01;102359.92;;;3.64;90.49
59417;BME280;45222;52.458;20.914;2023-02-13T05:25:05;102360.61;;;3.61;90.28
59417;BME280;45222;52.458;20.914;2023-02-13T05:28:50;102350.20;;;3.60;90.33
59417;BME280;45222;52.458;20.914;2023-02-13T05:32:54;102350.19;;;3.59;90.48
59417;BME280;45222;52.458;20.914;2023-02-13T05:36:40;102346.34;;;3.61;90.65
59417;BME280;45222;52.458;20.914;2023-02-13T05:40:25;102349.53;;;3.63;90.70
59417;BME280;45222;52.458;20.914;2023-02-13T05:44:11;102359.19;;;3.61;90.61
59417;BME280;45222;52.458;20.914;2023-02-13T05:47:57;102364.44;;;3.59;90.53
59417;BME280;45222;52.458;20.914;2023-02-13T05:51:43;102363.67;;;3.55;90.42
59417;BME280;45222;52.458;20.914;2023-02-13T05:55:30;102364.18;;;3.53;90.45
59417;BME280;45222;52.458;20.914;2023-02-13T05:59:15;102378.80;;;3.54;90.48
59417;BME280;45222;52.458;20.914;2023-02-13T06:03:00;102382.70;;;3.56;90.77
59417;BME280;45222;52.458;20.914;2023-02-13T06:06:46;102383.10;;;3.60;90.70
59417;BME280;45222;52.458;20.914;2023-02-13T06:10:32;102378.71;;;3.61;90.66
59417;BME280;45222;52.458;20.914;2023-02-13T06:14:17;102370.60;;;3.59;90.39
59417;BME280;45222;52.458;20.914;2023-02-13T06:18:02;102382.88;;;3.57;90.28
59417;BME280;45222;52.458;20.914;2023-02-13T06:21:47;102378.10;;;3.54;90.31
59417;BME280;45222;52.458;20.914;2023-02-13T06:25:34;102374.78;;;3.56;90.44
59417;BME280;45222;52.458;20.914;2023-02-13T06:29:19;102379.38;;;3.59;90.48
59417;BME280;45222;52.458;20.914;2023-02-13T06:33:05;102382.77;;;3.61;90.55
59417;BME280;45222;52.458;20.914;2023-02-13T06:36:50;102388.06;;;3.63;90.55
59417;BME280;45222;52.458;20.914;2023-02-13T06:40:36;102394.74;;;3.62;90.38
59417;BME280;45222;52.458;20.914;2023-02-13T06:44:21;102394.92;;;3.62;90.31
59417;BME280;45222;52.458;20.914;2023-02-13T06:48:06;102385.44;;;3.64;90.34
59417;BME280;45222;52.458;20.914;2023-02-13T06:51:52;102380.89;;;3.67;90.40
59417;BME280;45222;52.458;20.914;2023-02-13T06:55:37;102377.03;;;3.68;90.36
59417;BME280;45222;52.458;20.914;2023-02-13T06:59:23;102370.53;;;3.68;90.26
59417;BME280;45222;52.458;20.914;2023-02-13T07:03:10;102375.30;;;3.69;90.07
59417;BME280;45222;52.458;20.914;2023-02-13T07:06:56;102375.95;;;3.66;89.92
59417;BME280;45222;52.458;20.914;2023-02-13T07:10:41;102372.27;;;3.65;89.69
59417;BME280;45222;52.458;20.914;2023-02-13T07:14:45;102371.22;;;3.67;89.74
59417;BME280;45222;52.458;20.914;2023-02-13T07:18:30;102372.27;;;3.68;89.83
59417;BME280;45222;52.458;20.914;2023-02-13T07:22:15;102380.98;;;3.74;89.85
59417;BME280;45222;52.458;20.914;2023-02-13T07:26:01;102390.39;;;3.81;89.86
59417;BME280;45222;52.458;20.914;2023-02-13T07:29:47;102392.38;;;3.85;89.66
59417;BME280;45222;52.458;20.914;2023-02-13T07:33:32;102393.63;;;3.87;89.27
59417;BME280;45222;52.458;20.914;2023-02-13T07:37:18;102390.82;;;3.87;89.40
59417;BME280;45222;52.458;20.914;2023-02-13T07:41:04;102389.84;;;3.93;89.41
59417;BME280;45222;52.458;20.914;2023-02-13T07:44:49;102392.54;;;3.99;89.49
59417;BME280;45222;52.458;20.914;2023-02-13T07:48:34;102395.96;;;4.05;89.69
59417;BME280;45222;52.458;20.914;2023-02-13T07:52:20;102394.09;;;4.12;89.59
59417;BME280;45222;52.458;20.914;2023-02-13T07:56:06;102386.06;;;4.18;89.73
59417;BME280;45222;52.458;20.914;2023-02-13T07:59:51;102375.90;;;4.23;89.53
59417;BME280;45222;52.458;20.914;2023-02-13T08:03:37;102376.30;;;4.29;89.72
59417;BME280;45222;52.458;20.914;2023-02-13T08:07:22;102373.56;;;4.38;89.77
59417;BME280;45222;52.458;20.914;2023-02-13T08:11:17;102375.41;;;4.46;89.98
59417;BME280;45222;52.458;20.914;2023-02-13T08:15:24;102377.11;;;4.60;90.10
59417;BME280;45222;52.458;20.914;2023-02-13T08:19:10;102374.19;;;4.68;89.76
59417;BME280;45222;52.458;20.914;2023-02-13T08:23:02;102373.86;;;4.72;89.71
59417;BME280;45222;52.458;20.914;2023-02-13T08:26:47;102365.96;;;4.75;89.45
59417;BME280;45222;52.458;20.914;2023-02-13T08:30:33;102372.11;;;4.75;89.27
59417;BME280;45222;52.458;20.914;2023-02-13T08:34:18;102375.29;;;4.74;89.20
59417;BME280;45222;52.458;20.914;2023-02-13T08:38:04;102376.11;;;4.68;88.92
59417;BME280;45222;52.458;20.914;2023-02-13T08:41:49;102368.67;;;4.61;88.92
59417;BME280;45222;52.458;20.914;2023-02-13T08:45:35;102367.59;;;4.60;88.91
59417;BME280;45222;52.458;20.914;2023-02-13T08:49:21;102359.83;;;4.59;88.81
59417;BME280;45222;52.458;20.914;2023-02-13T08:53:07;102360.89;;;4.59;88.76
59417;BME280;45222;52.458;20.914;2023-02-13T08:56:52;102359.15;;;4.60;88.44
59417;BME280;45222;52.458;20.914;2023-02-13T09:00:37;102360.90;;;4.61;88.39
59417;BME280;45222;52.458;20.914;2023-02-13T09:04:22;102359.55;;;4.67;88.11
59417;BME280;45222;52.458;20.914;2023-02-13T09:08:08;102358.38;;;4.76;87.94
59417;BME280;45222;52.458;20.914;2023-02-13T09:11:55;102360.23;;;4.88;87.98
59417;BME280;45222;52.458;20.914;2023-02-13T09:15:41;102357.81;;;4.95;87.45
59417;BME280;45222;52.458;20.914;2023-02-13T09:19:27;102358.54;;;4.99;87.30
59417;BME280;45222;52.458;20.914;2023-02-13T09:23:12;102359.25;;;4.98;87.25
59417;BME280;45222;52.458;20.914;2023-02-13T09:26:58;102359.95;;;4.97;87.43
59417;BME280;45222;52.458;20.914;2023-02-13T09:30:43;102361.54;;;4.98;87.62
59417;BME280;45222;52.458;20.914;2023-02-13T09:34:28;102362.23;;;4.97;87.70
59417;BME280;45222;52.458;20.914;2023-02-13T09:38:14;102356.59;;;4.97;87.72
59417;BME280;45222;52.458;20.914;2023-02-13T09:42:00;102352.90;;;5.00;87.62
59417;BME280;45222;52.458;20.914;2023-02-13T09:45:47;102348.88;;;5.04;87.92
59417;BME280;45222;52.458;20.914;2023-02-13T09:49:37;102357.39;;;5.11;87.76
59417;BME280;45222;52.458;20.914;2023-02-13T09:53:26;102360.05;;;5.15;87.72
59417;BME280;45222;52.458;20.914;2023-02-13T09:57:18;102363.05;;;5.16;87.60
59417;BME280;45222;52.458;20.914;2023-02-13T10:01:13;102368.55;;;5.20;87.64
59417;BME280;45222;52.458;20.914;2023-02-13T10:05:14;102370.52;;;5.26;88.00
59417;BME280;45222;52.458;20.914;2023-02-13T10:09:09;102367.02;;;5.29;88.12
59417;BME280;45222;52.458;20.914;2023-02-13T10:13:07;102366.48;;;5.28;88.00
59417;BME280;45222;52.458;20.914;2023-02-13T10:17:03;102366.08;;;5.21;87.83
59417;BME280;45222;52.458;20.914;2023-02-13T10:20:53;102364.50;;;5.19;87.83
59417;BME280;45222;52.458;20.914;2023-02-13T10:24:45;102370.84;;;5.18;88.01
59417;BME280;45222;52.458;20.914;2023-02-13T10:28:36;102370.27;;;5.13;88.16
59417;BME280;45222;52.458;20.914;2023-02-13T10:32:26;102369.16;;;5.05;88.18
59417;BME280;45222;52.458;20.914;2023-02-13T10:36:17;102362.60;;;4.98;88.31
59417;BME280;45222;52.458;20.914;2023-02-13T10:40:10;102353.21;;;4.92;88.12
59417;BME280;45222;52.458;20.914;2023-02-13T10:44:09;102347.20;;;4.90;88.32
59417;BME280;45222;52.458;20.914;2023-02-13T10:48:08;102342.64;;;4.93;88.48
59417;BME280;45222;52.458;20.914;2023-02-13T10:52:06;102335.92;;;4.93;88.39
59417;BME280;45222;52.458;20.914;2023-02-13T10:56:08;102340.15;;;4.90;88.35
59417;BME280;45222;52.458;20.914;2023-02-13T11:00:07;102337.83;;;4.86;88.36
59417;BME280;45222;52.458;20.914;2023-02-13T11:04:04;102336.92;;;4.82;88.55
59417;BME280;45222;52.458;20.914;2023-02-13T11:07:50;102327.23;;;4.82;88.61
59417;BME280;45222;52.458;20.914;2023-02-13T11:11:37;102324.39;;;4.79;88.56
59417;BME280;45222;52.458;20.914;2023-02-13T11:15:26;102321.73;;;4.76;88.35
59417;BME280;45222;52.458;20.914;2023-02-13T11:19:16;102320.13;;;4.74;88.72
59417;BME280;45222;52.458;20.914;2023-02-13T11:23:33;102314.83;;;4.72;88.74
59417;BME280;45222;52.458;20.914;2023-02-13T11:27:23;102319.95;;;4.74;88.66
59417;BME280;45222;52.458;20.914;2023-02-13T11:31:19;102314.85;;;4.78;88.65
59417;BME280;45222;52.458;20.914;2023-02-13T11:35:26;102308.35;;;4.80;88.58
59417;BME280;45222;52.458;20.914;2023-02-13T11:39:18;102310.27;;;4.77;88.52
59417;BME280;45222;52.458;20.914;2023-02-13T11:43:06;102310.44;;;4.76;88.43
59417;BME280;45222;52.458;20.914;2023-02-13T11:46:53;102311.34;;;4.78;88.60
59417;BME280;45222;52.458;20.914;2023-02-13T11:50:39;102302.89;;;4.79;88.51
59417;BME280;45222;52.458;20.914;2023-02-13T11:54:32;102305.70;;;4.78;88.39
59417;BME280;45222;52.458;20.914;2023-02-13T11:58:25;102299.70;;;4.78;88.23
59417;BME280;45222;52.458;20.914;2023-02-13T12:02:22;102295.49;;;4.80;88.21
59417;BME280;45222;52.458;20.914;2023-02-13T12:06:12;102283.16;;;4.83;88.43
59417;BME280;45222;52.458;20.914;2023-02-13T12:10:02;102273.13;;;4.86;88.57
59417;BME280;45222;52.458;20.914;2023-02-13T12:13:51;102275.61;;;4.87;88.17
59417;BME280;45222;52.458;20.914;2023-02-13T12:17:37;102273.13;;;4.85;88.24
59417;BME280;45222;52.458;20.914;2023-02-13T12:21:38;102265.90;;;4.88;88.24
59417;BME280;45222;52.458;20.914;2023-02-13T12:25:36;102266.65;;;4.94;88.58
59417;BME280;45222;52.458;20.914;2023-02-13T12:29:49;102267.58;;;5.04;88.56
59417;BME280;45222;52.458;20.914;2023-02-13T12:38:03;102256.41;;;5.31;88.41
59417;BME280;45222;52.458;20.914;2023-02-13T12:42:08;102251.33;;;5.39;88.23
59417;BME280;45222;52.458;20.914;2023-02-13T12:46:04;102244.11;;;5.44;87.72
59417;BME280;45222;52.458;20.914;2023-02-13T12:54:25;102224.38;;;5.55;87.79
59417;BME280;45222;52.458;20.914;2023-02-13T12:58:45;102211.67;;;5.58;87.63
59417;BME280;45222;52.458;20.914;2023-02-13T13:02:47;102214.32;;;5.58;87.52
59417;BME280;45222;52.458;20.914;2023-02-13T13:06:45;102209.55;;;5.58;87.16
59417;BME280;45222;52.458;20.914;2023-02-13T13:10:46;102195.78;;;5.54;87.09
59417;BME280;45222;52.458;20.914;2023-02-13T13:14:41;102190.48;;;5.51;87.05
59417;BME280;45222;52.458;20.914;2023-02-13T13:18:38;102192.95;;;5.48;86.82
59417;BME280;45222;52.458;20.914;2023-02-13T13:22:32;102195.92;;;5.42;86.63
59417;BME280;45222;52.458;20.914;2023-02-13T13:26:22;102195.58;;;5.40;86.69
59417;BME280;45222;52.458;20.914;2023-02-13T13:30:16;102184.63;;;5.40;86.42
59417;BME280;45222;52.458;20.914;2023-02-13T13:34:12;102184.29;;;5.43;85.82
59417;BME280;45222;52.458;20.914;2023-02-13T13:38:04;102183.05;;;5.45;85.47
59417;BME280;45222;52.458;20.914;2023-02-13T13:42:01;102188.88;;;5.46;85.11
59417;BME280;45222;52.458;20.914;2023-02-13T13:46:02;102187.11;;;5.47;85.34
59417;BME280;45222;52.458;20.914;2023-02-13T13:49:53;102181.64;;;5.46;85.14
59417;BME280;45222;52.458;20.914;2023-02-13T13:54:21;102187.46;;;5.42;84.64
59417;BME280;45222;52.458;20.914;2023-02-13T13:58:20;102183.92;;;5.35;84.37
59417;BME280;45222;52.458;20.914;2023-02-13T14:02:40;102189.55;;;5.32;84.50
59417;BME280;45222;52.458;20.914;2023-02-13T14:07:12;102190.08;;;5.31;84.62
59417;BME280;45222;52.458;20.914;2023-02-13T14:11:01;102181.79;;;5.27;84.01
59417;BME280;45222;52.458;20.914;2023-02-13T14:14:46;102168.71;;;5.23;84.00
59417;BME280;45222;52.458;20.914;2023-02-13T14:18:33;102165.70;;;5.22;83.87
59417;BME280;45222;52.458;20.914;2023-02-13T14:22:34;102172.77;;;5.23;84.03
59417;BME280;45222;52.458;20.914;2023-02-13T14:26:30;102177.55;;;5.25;84.14
59417;BME280;45222;52.458;20.914;2023-02-13T14:30:27;102184.25;;;5.24;84.05
59417;BME280;45222;52.458;20.914;2023-02-13T14:34:19;102190.06;;;5.23;83.87
59417;BME280;45222;52.458;20.914;2023-02-13T14:38:23;102188.83;;;5.24;83.76
59417;BME280;45222;52.458;20.914;2023-02-13T14:42:24;102189.54;;;5.25;83.92
59417;BME280;45222;52.458;20.914;2023-02-13T14:46:19;102187.24;;;5.22;83.72
59417;BME280;45222;52.458;20.914;2023-02-13T14:50:17;102187.94;;;5.17;83.31
59417;BME280;45222;52.458;20.914;2023-02-13T14:54:16;102175.75;;;5.16;83.17
59417;BME280;45222;52.458;20.914;2023-02-13T14:58:07;102176.29;;;5.16;83.51
59417;BME280;45222;52.458;20.914;2023-02-13T15:01:59;102173.45;;;5.12;83.47
59417;BME280;45222;52.458;20.914;2023-02-13T15:05:50;102169.73;;;5.09;83.32
59417;BME280;45222;52.458;20.914;2023-02-13T15:09:38;102152.44;;;5.05;83.28
59417;BME280;45222;52.458;20.914;2023-02-13T15:13:31;102145.20;;;5.04;83.46
59417;BME280;45222;52.458;20.914;2023-02-13T15:17:18;102124.58;;;5.03;83.60
59417;BME280;45222;52.458;20.914;2023-02-13T15:21:04;102117.16;;;5.03;83.91
59417;BME280;45222;52.458;20.914;2023-02-13T15:24:50;102123.34;;;5.01;83.71
59417;BME280;45222;52.458;20.914;2023-02-13T15:28:36;102134.61;;;4.98;83.35
59417;BME280;45222;52.458;20.914;2023-02-13T15:32:27;102139.36;;;4.96;83.39
59417;BME280;45222;52.458;20.914;2023-02-13T15:36:17;102145.54;;;4.95;83.58
59417;BME280;45222;52.458;20.914;2023-02-13T15:40:19;102161.05;;;4.96;83.90
59417;BME280;45222;52.458;20.914;2023-02-13T15:44:12;102159.64;;;4.94;83.54
59417;BME280;45222;52.458;20.914;2023-02-13T15:48:01;102165.79;;;4.91;83.60
59417;BME280;45222;52.458;20.914;2023-02-13T15:51:47;102172.48;;;4.87;83.56
59417;BME280;45222;52.458;20.914;2023-02-13T15:55:33;102152.38;;;4.86;83.42
59417;BME280;45222;52.458;20.914;2023-02-13T15:59:23;102140.92;;;4.88;83.45
59417;BME280;45222;52.458;20.914;2023-02-13T16:03:13;102138.64;;;4.90;83.21
59417;BME280;45222;52.458;20.914;2023-02-13T16:07:00;102139.52;;;4.88;82.88
59417;BME280;45222;52.458;20.914;2023-02-13T16:10:45;102138.81;;;4.89;82.70
59417;BME280;45222;52.458;20.914;2023-02-13T16:14:32;102135.29;;;4.90;82.56
59417;BME280;45222;52.458;20.914;2023-02-13T16:18:19;102137.23;;;4.93;82.33
59417;BME280;45222;52.458;20.914;2023-02-13T16:22:30;102151.88;;;4.94;81.97
59417;BME280;45222;52.458;20.914;2023-02-13T16:26:16;102161.04;;;4.92;81.63
59417;BME280;45222;52.458;20.914;2023-02-13T16:30:03;102158.21;;;4.91;81.58
59417;BME280;45222;52.458;20.914;2023-02-13T16:33:51;102170.20;;;4.91;81.80
59417;BME280;45222;52.458;20.914;2023-02-13T16:37:50;102180.06;;;4.89;81.48
59417;BME280;45222;52.458;20.914;2023-02-13T16:41:36;102178.66;;;4.89;81.67
59417;BME280;45222;52.458;20.914;2023-02-13T16:45:22;102176.35;;;4.87;81.46
59417;BME280;45222;52.458;20.914;2023-02-13T16:49:28;102176.70;;;4.83;81.19
59417;BME280;45222;52.458;20.914;2023-02-13T16:53:15;102177.21;;;4.82;81.21
59417;BME280;45222;52.458;20.914;2023-02-13T16:57:03;102174.56;;;4.81;81.54
59417;BME280;45222;52.458;20.914;2023-02-13T17:00:50;102172.45;;;4.80;81.41
59417;BME280;45222;52.458;20.914;2023-02-13T17:04:36;102175.08;;;4.77;81.29
59417;BME280;45222;52.458;20.914;2023-02-13T17:08:22;102176.66;;;4.76;81.51
59417;BME280;45222;52.458;20.914;2023-02-13T17:12:13;102157.61;;;4.75;81.55
59417;BME280;45222;52.458;20.914;2023-02-13T17:16:00;102163.09;;;4.76;81.61
59417;BME280;45222;52.458;20.914;2023-02-13T17:19:45;102172.59;;;4.74;81.36
59417;BME280;45222;52.458;20.914;2023-02-13T17:23:31;102163.58;;;4.70;81.14
59417;BME280;45222;52.458;20.914;2023-02-13T17:27:17;102157.41;;;4.66;81.18
59417;BME280;45222;52.458;20.914;2023-02-13T17:31:02;102154.39;;;4.65;81.07
59417;BME280;45222;52.458;20.914;2023-02-13T17:34:48;102155.98;;;4.64;81.15
59417;BME280;45222;52.458;20.914;2023-02-13T17:38:33;102159.84;;;4.63;81.09
59417;BME280;45222;52.458;20.914;2023-02-13T17:42:21;102173.77;;;4.61;80.97
59417;BME280;45222;52.458;20.914;2023-02-13T17:46:07;102184.31;;;4.57;80.98
59417;BME280;45222;52.458;20.914;2023-02-13T17:49:52;102192.07;;;4.56;80.91
59417;BME280;45222;52.458;20.914;2023-02-13T17:53:38;102192.77;;;4.58;80.98
59417;BME280;45222;52.458;20.914;2023-02-13T17:57:23;102203.71;;;4.59;80.87
59417;BME280;45222;52.458;20.914;2023-02-13T18:01:10;102195.61;;;4.61;80.44
59417;BME280;45222;52.458;20.914;2023-02-13T18:04:58;102201.24;;;4.60;80.37
59417;BME280;45222;52.458;20.914;2023-02-13T18:08:46;102210.58;;;4.60;80.39
59417;BME280;45222;52.458;20.914;2023-02-13T18:12:35;102221.88;;;4.63;80.39
59417;BME280;45222;52.458;20.914;2023-02-13T18:16:24;102229.10;;;4.62;79.89
59417;BME280;45222;52.458;20.914;2023-02-13T18:20:13;102227.31;;;4.59;79.81
59417;BME280;45222;52.458;20.914;2023-02-13T18:23:59;102229.77;;;4.56;79.62
59417;BME280;45222;52.458;20.914;2023-02-13T18:27:44;102235.94;;;4.55;79.74
59417;BME280;45222;52.458;20.914;2023-02-13T18:31:30;102225.36;;;4.55;79.50
59417;BME280;45222;52.458;20.914;2023-02-13T18:35:15;102222.71;;;4.53;79.42
59417;BME280;45222;52.458;20.914;2023-02-13T18:39:02;102233.95;;;4.50;79.00
59417;BME280;45222;52.458;20.914;2023-02-13T18:42:47;102223.71;;;4.45;79.02
59417;BME280;45222;52.458;20.914;2023-02-13T18:46:33;102215.77;;;4.45;79.27
59417;BME280;45222;52.458;20.914;2023-02-13T18:50:20;102208.90;;;4.44;79.30
59417;BME280;45222;52.458;20.914;2023-02-13T18:54:05;102215.95;;;4.42;79.41
59417;BME280;45222;52.458;20.914;2023-02-13T18:57:52;102222.45;;;4.41;79.09
59417;BME280;45222;52.458;20.914;2023-02-13T19:01:37;102223.30;;;4.37;79.07
59417;BME280;45222;52.458;20.914;2023-02-13T19:05:23;102219.25;;;4.36;79.13
59417;BME280;45222;52.458;20.914;2023-02-13T19:09:08;102216.42;;;4.35;79.27
59417;BME280;45222;52.458;20.914;2023-02-13T19:12:54;102216.77;;;4.34;79.34
59417;BME280;45222;52.458;20.914;2023-02-13T19:16:39;102221.50;;;4.32;79.15
59417;BME280;45222;52.458;20.914;2023-02-13T19:20:24;102223.41;;;4.29;79.10
59417;BME280;45222;52.458;20.914;2023-02-13T19:24:11;102226.41;;;4.29;79.22
59417;BME280;45222;52.458;20.914;2023-02-13T19:27:58;102238.05;;;4.30;79.42
59417;BME280;45222;52.458;20.914;2023-02-13T19:31:43;102239.98;;;4.29;79.27
59417;BME280;45222;52.458;20.914;2023-02-13T19:35:29;102247.35;;;4.26;79.06
59417;BME280;45222;52.458;20.914;2023-02-13T19:39:14;102249.61;;;4.23;79.12
59417;BME280;45222;52.458;20.914;2023-02-13T19:42:59;102248.17;;;4.20;78.99
59417;BME280;45222;52.458;20.914;2023-02-13T19:46:45;102248.52;;;4.20;79.04
59417;BME280;45222;52.458;20.914;2023-02-13T19:50:30;102251.90;;;4.21;79.28
59417;BME280;45222;52.458;20.914;2023-02-13T19:54:15;102251.57;;;4.25;79.48
59417;BME280;45222;52.458;20.914;2023-02-13T19:58:01;102249.45;;;4.26;79.39
59417;BME280;45222;52.458;20.914;2023-02-13T20:01:46;102243.81;;;4.25;78.80
59417;BME280;45222;52.458;20.914;2023-02-13T20:05:36;102240.27;;;4.22;78.66
59417;BME280;45222;52.458;20.914;2023-02-13T20:09:30;102251.52;;;4.19;78.61
59417;BME280;45222;52.458;20.914;2023-02-13T20:13:16;102258.55;;;4.15;78.91
59417;BME280;45222;52.458;20.914;2023-02-13T20:17:01;102260.14;;;4.18;78.88
59417;BME280;45222;52.458;20.914;2023-02-13T20:20:47;102259.61;;;4.18;78.90
59417;BME280;45222;52.458;20.914;2023-02-13T20:24:32;102255.01;;;4.15;78.66